sensor_id;sensor_type;location;lat;lon;timestamp;pressure;altitude;pressure_sealevel;temperature
81657;BMP280;71067;51.482;-0.580;2024-03-29T00:01:02;98207.69;;;9.38
81657;BMP280;71067;51.482;-0.580;2024-03-29T00:03:27;98216.63;;;9.35
81657;BMP280;71067;51.482;-0.580;2024-03-29T00:05:52;98226.63;;;9.32
81657;BMP280;71067;51.482;-0.580;2024-03-29T00:08:18;98228.59;;;9.29
81657;BMP280;71067;51.482;-0.580;2024-03-29T00:10:43;98232.19;;;9.28
81657;BMP280;71067;51.482;-0.580;2024-03-29T00:13:11;98233.19;;;9.27
81657;BMP280;71067;51.482;-0.580;2024-03-29T00:15:36;98229.81;;;9.27
81657;BMP280;71067;51.482;-0.580;2024-03-29T00:18:01;98246.50;;;9.24
81657;BMP280;71067;51.482;-0.580;2024-03-29T00:20:27;98245.50;;;9.25
81657;BMP280;71067;51.482;-0.580;2024-03-29T00:22:54;98243.50;;;9.27
81657;BMP280;71067;51.482;-0.580;2024-03-29T00:25:19;98234.97;;;9.27
81657;BMP280;71067;51.482;-0.580;2024-03-29T00:27:45;98233.41;;;9.26
81657;BMP280;71067;51.482;-0.580;2024-03-29T00:30:10;98234.19;;;9.26
81657;BMP280;71067;51.482;-0.580;2024-03-29T00:32:35;98228.03;;;9.27
81657;BMP280;71067;51.482;-0.580;2024-03-29T00:35:01;98222.28;;;9.25
81657;BMP280;71067;51.482;-0.580;2024-03-29T00:37:26;98212.75;;;9.26
81657;BMP280;71067;51.482;-0.580;2024-03-29T00:39:51;98217.13;;;9.25
81657;BMP280;71067;51.482;-0.580;2024-03-29T00:42:17;98208.41;;;9.26
81657;BMP280;71067;51.482;-0.580;2024-03-29T00:44:44;98216.31;;;9.25
81657;BMP280;71067;51.482;-0.580;2024-03-29T00:47:10;98223.06;;;9.26
81657;BMP280;71067;51.482;-0.580;2024-03-29T00:49:35;98220.50;;;9.26
81657;BMP280;71067;51.482;-0.580;2024-03-29T00:52:01;98220.28;;;9.27
81657;BMP280;71067;51.482;-0.580;2024-03-29T00:54:26;98222.88;;;9.27
81657;BMP280;71067;51.482;-0.580;2024-03-29T00:56:52;98215.91;;;9.28
81657;BMP280;71067;51.482;-0.580;2024-03-29T00:59:17;98217.50;;;9.29
81657;BMP280;71067;51.482;-0.580;2024-03-29T01:01:43;98218.28;;;9.29
81657;BMP280;71067;51.482;-0.580;2024-03-29T01:04:08;98220.84;;;9.29
81657;BMP280;71067;51.482;-0.580;2024-03-29T01:06:33;98216.31;;;9.32
81657;BMP280;71067;51.482;-0.580;2024-03-29T01:09:02;98216.06;;;9.33
81657;BMP280;71067;51.482;-0.580;2024-03-29T01:11:28;98225.38;;;9.34
81657;BMP280;71067;51.482;-0.580;2024-03-29T01:13:54;98226.94;;;9.35
81657;BMP280;71067;51.482;-0.580;2024-03-29T01:16:19;98224.94;;;9.37
81657;BMP280;71067;51.482;-0.580;2024-03-29T01:18:44;98221.38;;;9.38
81657;BMP280;71067;51.482;-0.580;2024-03-29T01:21:11;98219.22;;;9.35
81657;BMP280;71067;51.482;-0.580;2024-03-29T01:23:37;98223.78;;;9.33
81657;BMP280;71067;51.482;-0.580;2024-03-29T01:26:02;98221.47;;;9.32
81657;BMP280;71067;51.482;-0.580;2024-03-29T01:28:28;98221.66;;;9.30
81657;BMP280;71067;51.482;-0.580;2024-03-29T01:30:54;98226.25;;;9.28
81657;BMP280;71067;51.482;-0.580;2024-03-29T01:33:23;98215.13;;;9.27
81657;BMP280;71067;51.482;-0.580;2024-03-29T01:35:48;98229.03;;;9.26
81657;BMP280;71067;51.482;-0.580;2024-03-29T01:38:14;98232.59;;;9.25
81657;BMP280;71067;51.482;-0.580;2024-03-29T01:40:39;98227.09;;;9.22
81657;BMP280;71067;51.482;-0.580;2024-03-29T01:43:05;98238.63;;;9.19
81657;BMP280;71067;51.482;-0.580;2024-03-29T01:45:30;98245.16;;;9.22
81657;BMP280;71067;51.482;-0.580;2024-03-29T01:47:56;98244.34;;;9.21
81657;BMP280;71067;51.482;-0.580;2024-03-29T01:50:21;98246.16;;;9.21
81657;BMP280;71067;51.482;-0.580;2024-03-29T01:52:47;98244.56;;;9.20
81657;BMP280;71067;51.482;-0.580;2024-03-29T01:55:13;98244.56;;;9.20
81657;BMP280;71067;51.482;-0.580;2024-03-29T01:57:38;98248.94;;;9.19
81657;BMP280;71067;51.482;-0.580;2024-03-29T02:00:04;98242.78;;;9.20
81657;BMP280;71067;51.482;-0.580;2024-03-29T02:02:32;98236.03;;;9.19
81657;BMP280;71067;51.482;-0.580;2024-03-29T02:04:57;98245.38;;;9.20
81657;BMP280;71067;51.482;-0.580;2024-03-29T02:07:22;98240.22;;;9.20
81657;BMP280;71067;51.482;-0.580;2024-03-29T02:09:48;98248.13;;;9.19
81657;BMP280;71067;51.482;-0.580;2024-03-29T02:12:13;98240.41;;;9.19
81657;BMP280;71067;51.482;-0.580;2024-03-29T02:14:39;98237.03;;;9.18
81657;BMP280;71067;51.482;-0.580;2024-03-29T02:17:05;98240.63;;;9.17
81657;BMP280;71067;51.482;-0.580;2024-03-29T02:19:31;98252.94;;;9.15
81657;BMP280;71067;51.482;-0.580;2024-03-29T02:21:56;98259.66;;;9.16
81657;BMP280;71067;51.482;-0.580;2024-03-29T02:24:24;98256.09;;;9.17
81657;BMP280;71067;51.482;-0.580;2024-03-29T02:26:49;98252.13;;;9.15
81657;BMP280;71067;51.482;-0.580;2024-03-29T02:29:14;98256.09;;;9.17
81657;BMP280;71067;51.482;-0.580;2024-03-29T02:31:40;98254.50;;;9.16
81657;BMP280;71067;51.482;-0.580;2024-03-29T02:34:05;98261.47;;;9.16
81657;BMP280;71067;51.482;-0.580;2024-03-29T02:36:32;98252.34;;;9.13
81657;BMP280;71067;51.482;-0.580;2024-03-29T02:38:58;98257.94;;;9.10
81657;BMP280;71067;51.482;-0.580;2024-03-29T02:41:23;98256.34;;;9.09
81657;BMP280;71067;51.482;-0.580;2024-03-29T02:43:48;98260.13;;;9.07
81657;BMP280;71067;51.482;-0.580;2024-03-29T02:46:13;98252.09;;;8.97
81657;BMP280;71067;51.482;-0.580;2024-03-29T02:48:39;98258.53;;;9.06
81657;BMP280;71067;51.482;-0.580;2024-03-29T02:51:04;98263.38;;;9.02
81657;BMP280;71067;51.482;-0.580;2024-03-29T02:53:29;98266.94;;;9.01
81657;BMP280;71067;51.482;-0.580;2024-03-29T02:55:55;98268.72;;;9.01
81657;BMP280;71067;51.482;-0.580;2024-03-29T02:58:20;98263.78;;;8.99
81657;BMP280;71067;51.482;-0.580;2024-03-29T03:00:45;98262.78;;;9.00
81657;BMP280;71067;51.482;-0.580;2024-03-29T03:03:13;98265.56;;;8.99
81657;BMP280;71067;51.482;-0.580;2024-03-29T03:05:39;98264.75;;;8.98
81657;BMP280;71067;51.482;-0.580;2024-03-29T03:08:04;98269.34;;;8.96
81657;BMP280;71067;51.482;-0.580;2024-03-29T03:10:48;98277.31;;;8.95
81657;BMP280;71067;51.482;-0.580;2024-03-29T03:13:26;98276.72;;;8.93
81657;BMP280;71067;51.482;-0.580;2024-03-29T03:15:52;98277.72;;;8.92
81657;BMP280;71067;51.482;-0.580;2024-03-29T03:18:17;98289.03;;;8.91
81657;BMP280;71067;51.482;-0.580;2024-03-29T03:20:42;98285.06;;;8.88
81657;BMP280;71067;51.482;-0.580;2024-03-29T03:23:07;98288.84;;;8.86
81657;BMP280;71067;51.482;-0.580;2024-03-29T03:25:33;98292.22;;;8.86
81657;BMP280;71067;51.482;-0.580;2024-03-29T03:27:58;98295.00;;;8.85
81657;BMP280;71067;51.482;-0.580;2024-03-29T03:30:23;98298.03;;;8.82
81657;BMP280;71067;51.482;-0.580;2024-03-29T03:32:48;98297.81;;;8.83
81657;BMP280;71067;51.482;-0.580;2024-03-29T03:35:14;98293.22;;;8.85
81657;BMP280;71067;51.482;-0.580;2024-03-29T03:37:39;98301.19;;;8.84
81657;BMP280;71067;51.482;-0.580;2024-03-29T03:40:05;98300.38;;;8.83
81657;BMP280;71067;51.482;-0.580;2024-03-29T03:42:31;98302.53;;;8.86
81657;BMP280;71067;51.482;-0.580;2024-03-29T03:44:56;98306.72;;;8.87
81657;BMP280;71067;51.482;-0.580;2024-03-29T03:47:22;98298.75;;;8.89
81657;BMP280;71067;51.482;-0.580;2024-03-29T03:49:47;98302.13;;;8.89
81657;BMP280;71067;51.482;-0.580;2024-03-29T03:52:12;98302.72;;;8.91
81657;BMP280;71067;51.482;-0.580;2024-03-29T03:54:37;98292.00;;;8.94
81657;BMP280;71067;51.482;-0.580;2024-03-29T03:57:03;98301.09;;;8.97
81657;BMP280;71067;51.482;-0.580;2024-03-29T03:59:29;98307.22;;;8.96
81657;BMP280;71067;51.482;-0.580;2024-03-29T04:01:54;98307.03;;;8.97
81657;BMP280;71067;51.482;-0.580;2024-03-29T04:04:19;98305.84;;;9.00
81657;BMP280;71067;51.482;-0.580;2024-03-29T04:06:44;98300.69;;;9.00
81657;BMP280;71067;51.482;-0.580;2024-03-29T04:09:10;98292.41;;;8.91
81657;BMP280;71067;51.482;-0.580;2024-03-29T04:11:36;98309.41;;;8.99
81657;BMP280;71067;51.482;-0.580;2024-03-29T04:14:01;98303.84;;;9.02
81657;BMP280;71067;51.482;-0.580;2024-03-29T04:16:26;98318.53;;;9.01
81657;BMP280;71067;51.482;-0.580;2024-03-29T04:18:51;98308.03;;;9.03
81657;BMP280;71067;51.482;-0.580;2024-03-29T04:21:17;98303.84;;;9.02
81657;BMP280;71067;51.482;-0.580;2024-03-29T04:23:42;98298.69;;;9.02
81657;BMP280;71067;51.482;-0.580;2024-03-29T04:26:07;98291.16;;;9.00
81657;BMP280;71067;51.482;-0.580;2024-03-29T04:28:32;98305.06;;;8.99
81657;BMP280;71067;51.482;-0.580;2024-03-29T04:31:00;98307.81;;;8.98
81657;BMP280;71067;51.482;-0.580;2024-03-29T04:33:26;98306.25;;;8.97
81657;BMP280;71067;51.482;-0.580;2024-03-29T04:35:53;98310.59;;;8.96
81657;BMP280;71067;51.482;-0.580;2024-03-29T04:38:18;98308.28;;;8.95
81657;BMP280;71067;51.482;-0.580;2024-03-29T04:40:43;98303.53;;;8.92
81657;BMP280;71067;51.482;-0.580;2024-03-29T04:43:08;98307.88;;;8.91
81657;BMP280;71067;51.482;-0.580;2024-03-29T04:45:34;98313.25;;;8.90
81657;BMP280;71067;51.482;-0.580;2024-03-29T04:47:59;98322.78;;;8.89
81657;BMP280;71067;51.482;-0.580;2024-03-29T04:50:24;98322.19;;;8.87
81657;BMP280;71067;51.482;-0.580;2024-03-29T04:52:49;98309.72;;;8.84
81657;BMP280;71067;51.482;-0.580;2024-03-29T04:55:14;98326.19;;;8.83
81657;BMP280;71067;51.482;-0.580;2024-03-29T04:57:40;98319.84;;;8.79
81657;BMP280;71067;51.482;-0.580;2024-03-29T05:00:06;98315.31;;;8.75
81657;BMP280;71067;51.482;-0.580;2024-03-29T05:02:31;98328.41;;;8.73
81657;BMP280;71067;51.482;-0.580;2024-03-29T05:04:56;98327.63;;;8.73
81657;BMP280;71067;51.482;-0.580;2024-03-29T05:07:23;98334.38;;;8.74
81657;BMP280;71067;51.482;-0.580;2024-03-29T05:09:48;98340.72;;;8.71
81657;BMP280;71067;51.482;-0.580;2024-03-29T05:12:14;98337.13;;;8.72
81657;BMP280;71067;51.482;-0.580;2024-03-29T05:14:39;98335.97;;;8.68
81657;BMP280;71067;51.482;-0.580;2024-03-29T05:17:04;98348.25;;;8.66
81657;BMP280;71067;51.482;-0.580;2024-03-29T05:19:30;98345.09;;;8.64
81657;BMP280;71067;51.482;-0.580;2024-03-29T05:21:55;98347.69;;;8.64
81657;BMP280;71067;51.482;-0.580;2024-03-29T05:24:20;98350.25;;;8.64
81657;BMP280;71067;51.482;-0.580;2024-03-29T05:26:46;98341.13;;;8.62
81657;BMP280;71067;51.482;-0.580;2024-03-29T05:29:11;98342.53;;;8.64
81657;BMP280;71067;51.482;-0.580;2024-03-29T05:31:37;98341.34;;;8.60
81657;BMP280;71067;51.482;-0.580;2024-03-29T05:34:02;98347.47;;;8.59
81657;BMP280;71067;51.482;-0.580;2024-03-29T05:36:27;98346.91;;;8.57
81657;BMP280;71067;51.482;-0.580;2024-03-29T05:38:53;98340.38;;;8.55
81657;BMP280;71067;51.482;-0.580;2024-03-29T05:41:19;98346.16;;;8.50
81657;BMP280;71067;51.482;-0.580;2024-03-29T05:43:44;98344.56;;;8.49
81657;BMP280;71067;51.482;-0.580;2024-03-29T05:46:09;98347.34;;;8.47
81657;BMP280;71067;51.482;-0.580;2024-03-29T05:48:36;98348.72;;;8.50
81657;BMP280;71067;51.482;-0.580;2024-03-29T05:51:01;98350.13;;;8.53
81657;BMP280;71067;51.482;-0.580;2024-03-29T05:53:28;98350.28;;;8.51
81657;BMP280;71067;51.482;-0.580;2024-03-29T05:55:53;98346.75;;;8.52
81657;BMP280;71067;51.482;-0.580;2024-03-29T05:58:22;98350.28;;;8.51
81657;BMP280;71067;51.482;-0.580;2024-03-29T06:00:47;98356.47;;;8.50
81657;BMP280;71067;51.482;-0.580;2024-03-29T06:03:14;98352.69;;;8.53
81657;BMP280;71067;51.482;-0.580;2024-03-29T06:05:39;98350.13;;;8.53
81657;BMP280;71067;51.482;-0.580;2024-03-29T06:08:05;98354.47;;;8.52
81657;BMP280;71067;51.482;-0.580;2024-03-29T06:10:30;98344.16;;;8.52
81657;BMP280;71067;51.482;-0.580;2024-03-29T06:12:56;98329.72;;;8.38
81657;BMP280;71067;51.482;-0.580;2024-03-29T06:15:21;98342.56;;;8.51
81657;BMP280;71067;51.482;-0.580;2024-03-29T06:18:05;98355.22;;;8.59
81657;BMP280;71067;51.482;-0.580;2024-03-29T06:20:30;98327.09;;;8.51
81657;BMP280;71067;51.482;-0.580;2024-03-29T06:22:56;98355.56;;;8.76
81657;BMP280;71067;51.482;-0.580;2024-03-29T06:25:21;98354.34;;;8.78
81657;BMP280;71067;51.482;-0.580;2024-03-29T06:27:47;98327.81;;;8.71
81657;BMP280;71067;51.482;-0.580;2024-03-29T06:30:16;98336.31;;;8.78
81657;BMP280;71067;51.482;-0.580;2024-03-29T06:32:42;98344.00;;;8.85
81657;BMP280;71067;51.482;-0.580;2024-03-29T06:35:08;98352.72;;;8.90
81657;BMP280;71067;51.482;-0.580;2024-03-29T06:37:33;98349.53;;;8.88
81657;BMP280;71067;51.482;-0.580;2024-03-29T06:39:59;98350.56;;;8.87
81657;BMP280;71067;51.482;-0.580;2024-03-29T06:42:24;98342.44;;;8.84
81657;BMP280;71067;51.482;-0.580;2024-03-29T06:44:50;98366.72;;;9.07
81657;BMP280;71067;51.482;-0.580;2024-03-29T06:47:18;98347.16;;;8.93
81657;BMP280;71067;51.482;-0.580;2024-03-29T06:49:44;98353.22;;;9.05
81657;BMP280;71067;51.482;-0.580;2024-03-29T06:52:10;98327.69;;;8.97
81657;BMP280;71067;51.482;-0.580;2024-03-29T06:54:36;98366.00;;;9.32
81657;BMP280;71067;51.482;-0.580;2024-03-29T06:57:01;98342.84;;;9.18
81657;BMP280;71067;51.482;-0.580;2024-03-29T06:59:28;98344.22;;;9.21
81657;BMP280;71067;51.482;-0.580;2024-03-29T07:01:54;98331.56;;;9.13
81657;BMP280;71067;51.482;-0.580;2024-03-29T07:04:23;98330.38;;;9.09
81657;BMP280;71067;51.482;-0.580;2024-03-29T07:06:52;98331.56;;;9.13
81657;BMP280;71067;51.482;-0.580;2024-03-29T07:09:18;98385.34;;;9.47
81657;BMP280;71067;51.482;-0.580;2024-03-29T07:11:49;98333.09;;;9.20
81657;BMP280;71067;51.482;-0.580;2024-03-29T07:14:17;98342.53;;;9.33
81657;BMP280;71067;51.482;-0.580;2024-03-29T07:16:48;98365.88;;;9.45
81657;BMP280;71067;51.482;-0.580;2024-03-29T07:19:14;98339.53;;;9.36
81657;BMP280;71067;51.482;-0.580;2024-03-29T07:21:42;98366.22;;;9.55
81657;BMP280;71067;51.482;-0.580;2024-03-29T07:24:08;98379.84;;;9.62
81657;BMP280;71067;51.482;-0.580;2024-03-29T07:26:37;98337.34;;;9.40
81657;BMP280;71067;51.482;-0.580;2024-03-29T07:29:02;98370.97;;;9.58
81657;BMP280;71067;51.482;-0.580;2024-03-29T07:31:33;98333.72;;;9.47
81657;BMP280;71067;51.482;-0.580;2024-03-29T07:34:01;98340.78;;;9.52
81657;BMP280;71067;51.482;-0.580;2024-03-29T07:36:27;98377.53;;;9.78
81657;BMP280;71067;51.482;-0.580;2024-03-29T07:38:57;98368.56;;;9.81
81657;BMP280;71067;51.482;-0.580;2024-03-29T07:41:25;98358.13;;;9.69
81657;BMP280;71067;51.482;-0.580;2024-03-29T07:43:59;98397.94;;;9.86
81657;BMP280;71067;51.482;-0.580;2024-03-29T07:46:43;98376.31;;;9.81
81657;BMP280;71067;51.482;-0.580;2024-03-29T07:49:11;98357.13;;;9.70
81657;BMP280;71067;51.482;-0.580;2024-03-29T07:51:36;98400.19;;;10.01
81657;BMP280;71067;51.482;-0.580;2024-03-29T07:54:02;98384.53;;;9.96
81657;BMP280;71067;51.482;-0.580;2024-03-29T07:56:27;98409.28;;;10.10
81657;BMP280;71067;51.482;-0.580;2024-03-29T07:58:55;98401.25;;;10.18
81657;BMP280;71067;51.482;-0.580;2024-03-29T08:01:21;98386.91;;;10.15
81657;BMP280;71067;51.482;-0.580;2024-03-29T08:03:47;98387.53;;;10.11
81657;BMP280;71067;51.482;-0.580;2024-03-29T08:06:12;98399.16;;;10.27
81657;BMP280;71067;51.482;-0.580;2024-03-29T08:08:38;98404.38;;;10.38
81657;BMP280;71067;51.482;-0.580;2024-03-29T08:11:03;98411.72;;;10.41
81657;BMP280;71067;51.482;-0.580;2024-03-29T08:13:29;98386.56;;;10.30
81657;BMP280;71067;51.482;-0.580;2024-03-29T08:15:58;98404.09;;;10.46
81657;BMP280;71067;51.482;-0.580;2024-03-29T08:18:24;98395.41;;;10.41
81657;BMP280;71067;51.482;-0.580;2024-03-29T08:20:50;98419.34;;;10.54
81657;BMP280;71067;51.482;-0.580;2024-03-29T08:23:15;98417.31;;;10.56
81657;BMP280;71067;51.482;-0.580;2024-03-29T08:25:43;98408.19;;;10.54
81657;BMP280;71067;51.482;-0.580;2024-03-29T08:28:09;98425.78;;;10.63
81657;BMP280;71067;51.482;-0.580;2024-03-29T08:30:38;98405.81;;;10.52
81657;BMP280;71067;51.482;-0.580;2024-03-29T08:33:04;98399.09;;;10.51
81657;BMP280;71067;51.482;-0.580;2024-03-29T08:35:30;98398.72;;;10.48
81657;BMP280;71067;51.482;-0.580;2024-03-29T08:37:55;98423.19;;;10.63
81657;BMP280;71067;51.482;-0.580;2024-03-29T08:40:21;98433.78;;;10.62
81657;BMP280;71067;51.482;-0.580;2024-03-29T08:42:47;98403.38;;;10.57
81657;BMP280;71067;51.482;-0.580;2024-03-29T08:45:13;98405.75;;;10.59
81657;BMP280;71067;51.482;-0.580;2024-03-29T08:47:38;98427.50;;;10.69
81657;BMP280;71067;51.482;-0.580;2024-03-29T08:50:04;98415.38;;;10.70
81657;BMP280;71067;51.482;-0.580;2024-03-29T08:52:33;98397.91;;;10.65
81657;BMP280;71067;51.482;-0.580;2024-03-29T08:54:59;98425.88;;;10.75
81657;BMP280;71067;51.482;-0.580;2024-03-29T08:57:24;98442.50;;;10.79
81657;BMP280;71067;51.482;-0.580;2024-03-29T08:59:50;98455.25;;;10.80
81657;BMP280;71067;51.482;-0.580;2024-03-29T09:02:15;98444.19;;;10.73
81657;BMP280;71067;51.482;-0.580;2024-03-29T09:04:40;98434.25;;;10.70
81657;BMP280;71067;51.482;-0.580;2024-03-29T09:07:06;98440.50;;;10.81
81657;BMP280;71067;51.482;-0.580;2024-03-29T09:09:31;98436.47;;;10.85
81657;BMP280;71067;51.482;-0.580;2024-03-29T09:11:57;98451.00;;;11.04
81657;BMP280;71067;51.482;-0.580;2024-03-29T09:14:23;98439.91;;;10.97
81657;BMP280;71067;51.482;-0.580;2024-03-29T09:16:51;98475.00;;;11.23
81657;BMP280;71067;51.482;-0.580;2024-03-29T09:19:23;98434.25;;;11.07
81657;BMP280;71067;51.482;-0.580;2024-03-29T09:21:49;98462.44;;;11.26
81657;BMP280;71067;51.482;-0.580;2024-03-29T09:24:15;98477.91;;;11.33
81657;BMP280;71067;51.482;-0.580;2024-03-29T09:26:42;98443.63;;;11.19
81657;BMP280;71067;51.482;-0.580;2024-03-29T09:29:08;98462.53;;;11.20
81657;BMP280;71067;51.482;-0.580;2024-03-29T09:31:35;98484.28;;;11.30
81657;BMP280;71067;51.482;-0.580;2024-03-29T09:34:00;98500.44;;;11.44
81657;BMP280;71067;51.482;-0.580;2024-03-29T09:36:29;98450.88;;;11.11
81657;BMP280;71067;51.482;-0.580;2024-03-29T09:38:56;98453.28;;;11.12
81657;BMP280;71067;51.482;-0.580;2024-03-29T09:41:24;98494.81;;;11.35
81657;BMP280;71067;51.482;-0.580;2024-03-29T09:43:51;98492.78;;;11.37
81657;BMP280;71067;51.482;-0.580;2024-03-29T09:46:22;98480.47;;;11.33
81657;BMP280;71067;51.482;-0.580;2024-03-29T09:48:49;98507.75;;;11.47
81657;BMP280;71067;51.482;-0.580;2024-03-29T09:51:17;98476.06;;;11.33
81657;BMP280;71067;51.482;-0.580;2024-03-29T09:53:45;98481.06;;;11.35
81657;BMP280;71067;51.482;-0.580;2024-03-29T09:56:11;98491.31;;;11.41
81657;BMP280;71067;51.482;-0.580;2024-03-29T09:58:37;98482.97;;;11.39
81657;BMP280;71067;51.482;-0.580;2024-03-29T10:01:21;98480.44;;;11.51
81657;BMP280;71067;51.482;-0.580;2024-03-29T10:03:54;98469.66;;;11.36
81657;BMP280;71067;51.482;-0.580;2024-03-29T10:06:23;98506.81;;;11.59
81657;BMP280;71067;51.482;-0.580;2024-03-29T10:08:49;98516.44;;;11.52
81657;BMP280;71067;51.482;-0.580;2024-03-29T10:11:28;98458.47;;;11.24
81657;BMP280;71067;51.482;-0.580;2024-03-29T10:13:53;98485.03;;;11.49
81657;BMP280;71067;51.482;-0.580;2024-03-29T10:16:20;98490.28;;;11.72
81657;BMP280;71067;51.482;-0.580;2024-03-29T10:18:49;98500.66;;;11.83
81657;BMP280;71067;51.482;-0.580;2024-03-29T10:21:15;98501.56;;;11.89
81657;BMP280;71067;51.482;-0.580;2024-03-29T10:23:41;98501.56;;;11.89
81657;BMP280;71067;51.482;-0.580;2024-03-29T10:26:08;98509.13;;;11.90
81657;BMP280;71067;51.482;-0.580;2024-03-29T10:28:38;98494.97;;;11.75
81657;BMP280;71067;51.482;-0.580;2024-03-29T10:31:05;98471.56;;;11.58
81657;BMP280;71067;51.482;-0.580;2024-03-29T10:33:33;98463.53;;;11.60
81657;BMP280;71067;51.482;-0.580;2024-03-29T10:36:00;98512.81;;;11.83
81657;BMP280;71067;51.482;-0.580;2024-03-29T10:38:28;98491.72;;;11.68
81657;BMP280;71067;51.482;-0.580;2024-03-29T10:41:07;98481.81;;;11.65
81657;BMP280;71067;51.482;-0.580;2024-03-29T10:43:36;98523.47;;;11.93
81657;BMP280;71067;51.482;-0.580;2024-03-29T10:46:02;98496.03;;;11.85
81657;BMP280;71067;51.482;-0.580;2024-03-29T10:48:30;98477.56;;;11.82
81657;BMP280;71067;51.482;-0.580;2024-03-29T10:50:58;98498.31;;;12.05
81657;BMP280;71067;51.482;-0.580;2024-03-29T10:53:26;98501.50;;;12.30
81657;BMP280;71067;51.482;-0.580;2024-03-29T10:55:58;98468.09;;;12.22
81657;BMP280;71067;51.482;-0.580;2024-03-29T10:58:35;98497.75;;;12.49
81657;BMP280;71067;51.482;-0.580;2024-03-29T11:01:01;98490.28;;;12.64
81657;BMP280;71067;51.482;-0.580;2024-03-29T11:03:58;98508.09;;;12.72
81657;BMP280;71067;51.482;-0.580;2024-03-29T11:06:30;98506.06;;;12.74
81657;BMP280;71067;51.482;-0.580;2024-03-29T11:08:58;98497.28;;;12.64
81657;BMP280;71067;51.482;-0.580;2024-03-29T11:11:33;98501.81;;;12.68
81657;BMP280;71067;51.482;-0.580;2024-03-29T11:14:11;98541.94;;;12.89
81657;BMP280;71067;51.482;-0.580;2024-03-29T11:16:39;98480.81;;;12.58
81657;BMP280;71067;51.482;-0.580;2024-03-29T11:19:12;98498.66;;;12.55
81657;BMP280;71067;51.482;-0.580;2024-03-29T11:21:43;98514.00;;;12.56
81657;BMP280;71067;51.482;-0.580;2024-03-29T11:24:13;98505.22;;;12.57
81657;BMP280;71067;51.482;-0.580;2024-03-29T11:26:39;98504.03;;;12.65
81657;BMP280;71067;51.482;-0.580;2024-03-29T11:29:06;98538.31;;;12.78
81657;BMP280;71067;51.482;-0.580;2024-03-29T11:31:38;98549.03;;;12.93
81657;BMP280;71067;51.482;-0.580;2024-03-29T11:34:08;98528.50;;;12.80
81657;BMP280;71067;51.482;-0.580;2024-03-29T11:36:43;98515.34;;;12.70
81657;BMP280;71067;51.482;-0.580;2024-03-29T11:39:22;98521.44;;;12.64
81657;BMP280;71067;51.482;-0.580;2024-03-29T11:42:08;98558.06;;;12.79
81657;BMP280;71067;51.482;-0.580;2024-03-29T11:44:33;98557.59;;;12.94
81657;BMP280;71067;51.482;-0.580;2024-03-29T11:47:08;98518.94;;;12.69
81657;BMP280;71067;51.482;-0.580;2024-03-29T11:49:37;98522.41;;;12.75
81657;BMP280;71067;51.482;-0.580;2024-03-29T11:52:05;98551.13;;;13.08
81657;BMP280;71067;51.482;-0.580;2024-03-29T11:54:40;98504.22;;;12.86
81657;BMP280;71067;51.482;-0.580;2024-03-29T11:57:08;98535.25;;;12.93
81657;BMP280;71067;51.482;-0.580;2024-03-29T11:59:36;98533.81;;;12.97
81657;BMP280;71067;51.482;-0.580;2024-03-29T12:02:11;98551.63;;;12.93
81657;BMP280;71067;51.482;-0.580;2024-03-29T12:04:44;98572.47;;;12.98
81657;BMP280;71067;51.482;-0.580;2024-03-29T12:07:12;98551.22;;;12.73
81657;BMP280;71067;51.482;-0.580;2024-03-29T12:09:43;98577.84;;;12.80
81657;BMP280;71067;51.482;-0.580;2024-03-29T12:12:14;98561.03;;;12.71
81657;BMP280;71067;51.482;-0.580;2024-03-29T12:14:45;98562.28;;;12.69
81657;BMP280;71067;51.482;-0.580;2024-03-29T12:17:11;98537.22;;;12.51
81657;BMP280;71067;51.482;-0.580;2024-03-29T12:19:40;98547.38;;;12.64
81657;BMP280;71067;51.482;-0.580;2024-03-29T12:22:10;98544.00;;;12.64
81657;BMP280;71067;51.482;-0.580;2024-03-29T12:24:39;98557.19;;;12.74
81657;BMP280;71067;51.482;-0.580;2024-03-29T12:27:04;98554.59;;;12.74
81657;BMP280;71067;51.482;-0.580;2024-03-29T12:29:31;98562.59;;;12.72
81657;BMP280;71067;51.482;-0.580;2024-03-29T12:32:04;98544.41;;;12.72
81657;BMP280;71067;51.482;-0.580;2024-03-29T12:34:37;98602.66;;;13.00
81657;BMP280;71067;51.482;-0.580;2024-03-29T12:37:05;98547.59;;;12.74
81657;BMP280;71067;51.482;-0.580;2024-03-29T12:39:33;98564.16;;;12.85
81657;BMP280;71067;51.482;-0.580;2024-03-29T12:42:03;98553.13;;;12.89
81657;BMP280;71067;51.482;-0.580;2024-03-29T12:44:35;98595.16;;;13.15
81657;BMP280;71067;51.482;-0.580;2024-03-29T12:47:01;98568.22;;;13.04
81657;BMP280;71067;51.482;-0.580;2024-03-29T12:49:27;98595.72;;;13.17
81657;BMP280;71067;51.482;-0.580;2024-03-29T12:52:04;98561.31;;;13.10
81657;BMP280;71067;51.482;-0.580;2024-03-29T12:54:36;98582.44;;;13.30
81657;BMP280;71067;51.482;-0.580;2024-03-29T12:57:09;98602.97;;;13.43
81657;BMP280;71067;51.482;-0.580;2024-03-29T12:59:42;98586.56;;;13.26
81657;BMP280;71067;51.482;-0.580;2024-03-29T13:02:08;98571.06;;;13.19
81657;BMP280;71067;51.482;-0.580;2024-03-29T13:04:59;98622.81;;;13.60
81657;BMP280;71067;51.482;-0.580;2024-03-29T13:07:30;98617.22;;;13.68
81657;BMP280;71067;51.482;-0.580;2024-03-29T13:10:02;98603.56;;;13.61
81657;BMP280;71067;51.482;-0.580;2024-03-29T13:12:43;98584.47;;;13.67
81657;BMP280;71067;51.482;-0.580;2024-03-29T13:15:36;98582.88;;;13.66
81657;BMP280;71067;51.482;-0.580;2024-03-29T13:18:02;98585.88;;;13.75
81657;BMP280;71067;51.482;-0.580;2024-03-29T13:20:33;98582.13;;;13.82
81657;BMP280;71067;51.482;-0.580;2024-03-29T13:23:01;98594.75;;;14.07
81657;BMP280;71067;51.482;-0.580;2024-03-29T13:25:28;98575.97;;;14.05
81657;BMP280;71067;51.482;-0.580;2024-03-29T13:27:59;98588.53;;;14.25
81657;BMP280;71067;51.482;-0.580;2024-03-29T13:30:43;98602.72;;;14.34
81657;BMP280;71067;51.482;-0.580;2024-03-29T13:33:13;98604.69;;;14.43
81657;BMP280;71067;51.482;-0.580;2024-03-29T13:35:42;98631.06;;;14.52
81657;BMP280;71067;51.482;-0.580;2024-03-29T13:38:12;98593.94;;;14.23
81657;BMP280;71067;51.482;-0.580;2024-03-29T13:40:40;98639.28;;;14.60
81657;BMP280;71067;51.482;-0.580;2024-03-29T13:43:08;98630.91;;;14.58
81657;BMP280;71067;51.482;-0.580;2024-03-29T13:45:38;98639.03;;;14.78
81657;BMP280;71067;51.482;-0.580;2024-03-29T13:48:04;98653.81;;;14.94
81657;BMP280;71067;51.482;-0.580;2024-03-29T13:50:35;98652.88;;;15.00
81657;BMP280;71067;51.482;-0.580;2024-03-29T13:53:03;98627.91;;;14.83
81657;BMP280;71067;51.482;-0.580;2024-03-29T13:55:31;98632.69;;;14.91
81657;BMP280;71067;51.482;-0.580;2024-03-29T13:57:56;98618.94;;;14.95
81657;BMP280;71067;51.482;-0.580;2024-03-29T14:00:25;98622.16;;;15.02
81657;BMP280;71067;51.482;-0.580;2024-03-29T14:02:53;98639.34;;;15.25
81657;BMP280;71067;51.482;-0.580;2024-03-29T14:05:21;98657.53;;;15.42